DAUB

Biskra Airport

Airport
ICAO code
DAUB
IATA Code
BSK
Summary
ICAO Region
AFI
ICAO Territory
Location

, Biskra

Serving
Biskra
Elevation
289 ft
Coordinates
34° 47' 36" N , 5° 44' 18" E
Metar
DAUB 270900Z 33022KT 8000 FEW040 14/03 Q1007

Runways

Designator Length Width Surface Rops
13/31 2886 45 ASP No/No

Airport map

Aerial View

SKYbrary Partners:

Safety knowledge contributed by: